Time;durP1;ratioP1;P1;durP2;ratioP2;P2;SDS_P1;SDS_P2;PMS_P1;PMS_P2;Temp;Humidity;BMP_temperature;BMP_pressure;BME280_temperature;BME280_humidity;BME280_pressure;Samples;Min_cycle;Max_cycle;Signal;HPM_P1;HPM_P2
2022/10/20 00:02:06;;;;;;;13.60;7.22;;;;;;;9.00;63.75;100311.72;5069927;28;20458;-30
2022/10/20 00:04:32;;;;;;;10.77;6.45;;;;;;;8.81;64.53;100300.03;5088424;28;20077;-27
2022/10/20 00:06:57;;;;;;;10.38;6.35;;;;;;;8.79;64.36;100320.69;5069712;28;20118;-28
2022/10/20 00:09:23;;;;;;;14.60;6.70;;;;;;;8.94;64.43;100322.34;5088545;28;20479;-28
2022/10/20 00:11:48;;;;;;;13.35;6.95;;;;;;;9.02;63.82;100317.66;5088182;28;20035;-28
2022/10/20 00:14:13;;;;;;;12.52;7.13;;;;;;;9.13;63.56;100310.91;5088232;28;20024;-30
2022/10/20 00:16:39;;;;;;;13.57;6.93;;;;;;;8.99;64.23;100293.28;5069321;28;20420;-28
2022/10/20 00:19:05;;;;;;;14.30;7.68;;;;;;;8.95;65.16;100308.00;5087858;28;20028;-27
2022/10/20 00:21:31;;;;;;;17.73;8.20;;;;;;;9.03;64.30;100300.69;5069832;28;20105;-28
2022/10/20 00:24:00;;;;;;;9.38;6.65;;;;;;;8.73;65.24;100316.16;5087953;28;20028;-27
2022/10/20 00:26:27;;;;;;;13.02;8.13;;;;;;;8.84;65.08;100307.59;5088026;28;20027;-27
2022/10/20 00:28:53;;;;;;;11.38;7.43;;;;;;;8.65;65.17;100292.41;5087657;28;20773;-31
2022/10/20 00:31:21;;;;;;;13.75;8.60;;;;;;;8.94;63.10;100311.72;5087654;28;20085;-28
2022/10/20 00:33:47;;;;;;;19.48;9.02;;;;;;;8.65;63.94;100308.38;5087679;28;20024;-27
2022/10/20 00:36:14;;;;;;;17.83;8.68;;;;;;;8.31;65.34;100307.38;5088147;28;20537;-26
2022/10/20 00:38:41;;;;;;;15.80;7.70;;;;;;;8.37;64.18;100284.53;5086868;28;20052;-27
2022/10/20 00:41:07;;;;;;;13.23;8.20;;;;;;;8.40;64.81;100316.84;5069252;28;20089;-27
2022/10/20 00:43:49;;;;;;;16.05;8.23;;;;;;;8.05;66.25;100294.81;5087562;28;20035;-28
2022/10/20 00:46:19;;;;;;;17.27;9.18;;;;;;;8.25;65.60;100293.06;5087976;28;20034;-26
2022/10/20 00:48:52;;;;;;;15.90;8.38;;;;;;;8.20;66.16;100297.34;5068993;28;20054;-28
2022/10/20 00:51:21;;;;;;;13.63;7.90;;;;;;;8.39;64.66;100299.25;5087369;28;20024;-27
2022/10/20 00:53:52;;;;;;;13.02;7.90;;;;;;;8.48;64.13;100301.75;5087612;28;20032;-27
2022/10/20 00:56:17;;;;;;;11.98;7.70;;;;;;;8.54;63.95;100300.97;5069483;28;20027;-27
2022/10/20 00:58:43;;;;;;;14.70;7.80;;;;;;;8.39;64.20;100288.63;5087198;28;20035;-26
2022/10/20 01:01:11;;;;;;;12.63;7.93;;;;;;;8.39;64.95;100288.63;5087514;28;20020;-28
2022/10/20 01:03:44;;;;;;;;;;;;;;;8.44;65.11;100302.16;5088110;28;20032;-26
2022/10/20 01:06:11;;;;;;;13.48;8.23;;;;;;;8.17;65.42;100285.28;5068909;28;19978;-30
2022/10/20 01:08:36;;;;;;;13.32;8.00;;;;;;;8.31;66.13;100301.25;5086954;28;20841;-29
2022/10/20 01:11:26;;;;;;;15.88;9.00;;;;;;;8.44;65.86;100312.81;5086809;28;20036;-31
2022/10/20 01:14:10;;;;;;;16.13;9.40;;;;;;;8.72;64.51;100303.88;5068888;28;20534;-28
2022/10/20 01:17:02;;;;;;;19.15;10.05;;;;;;;8.55;64.96;100306.09;5068504;28;20423;-26
2022/10/20 01:19:36;;;;;;;19.55;10.00;;;;;;;8.64;65.24;100309.38;5086859;28;20032;-27
2022/10/20 01:22:38;;;;;;;16.45;10.40;;;;;;;8.61;65.55;100304.47;5087156;28;20123;-29
2022/10/20 01:25:25;;;;;;;20.08;11.13;;;;;;;8.31;66.40;100307.38;5086938;28;20030;-29
2022/10/20 01:28:22;;;;;;;20.65;10.48;;;;;;;8.44;65.74;100312.81;5087093;28;20028;-30
2022/10/20 01:30:55;;;;;;;20.17;10.68;;;;;;;7.77;68.29;100292.22;5051370;28;20040;-27
2022/10/20 01:33:32;;;;;;;19.58;10.63;;;;;;;7.96;68.20;100310.06;5087074;28;20028;-30
2022/10/20 01:36:11;;;;;;;20.63;11.13;;;;;;;8.14;67.64;100311.41;5087074;28;20491;-27
2022/10/20 01:39:17;;;;;;;21.02;12.43;;;;;;;8.47;66.30;100306.25;5086547;28;20052;-27
2022/10/20 01:41:51;;;;;;;16.35;9.30;;;;;;;8.43;65.68;100316.47;4984461;28;20034;-31
2022/10/20 01:44:20;;;;;;;18.15;9.55;;;;;;;8.21;66.14;100291.00;4968103;28;20027;-28
2022/10/20 01:46:45;;;;;;;17.27;10.73;;;;;;;8.33;66.61;100284.09;5040635;28;20578;-31
2022/10/20 01:49:13;;;;;;;15.35;10.07;;;;;;;8.30;66.64;100289.81;5068717;28;20032;-28
2022/10/20 01:51:39;;;;;;;15.68;9.50;;;;;;;8.36;66.96;100318.25;5072954;28;20078;-27
2022/10/20 01:54:04;;;;;;;16.15;9.23;;;;;;;8.36;66.37;100289.03;5090901;28;20032;-27
2022/10/20 01:56:48;;;;;;;18.17;10.98;;;;;;;8.30;67.58;100311.06;5072484;28;20081;-26
2022/10/20 01:59:30;;;;;;;18.08;10.88;;;;;;;8.18;68.40;100312.66;5091116;28;20042;-28
2022/10/20 02:02:24;;;;;;;22.52;11.73;;;;;;;8.55;66.79;100324.69;5072390;28;20543;-29
2022/10/20 02:05:06;;;;;;;22.20;12.73;;;;;;;8.27;67.08;100316.78;5044611;28;20040;-27
2022/10/20 02:07:32;;;;;;;32.13;15.45;;;;;;;8.02;67.11;100306.63;5090609;28;20411;-29
2022/10/20 02:10:14;;;;;;;31.27;16.27;;;;;;;7.71;68.29;100300.94;5089164;28;20176;-29
2022/10/20 02:12:42;;;;;;;37.88;17.40;;;;;;;7.77;68.78;100318.75;5090530;28;20032;-27
2022/10/20 02:15:11;;;;;;;34.70;15.82;;;;;;;7.57;70.11;100315.94;5090258;28;20024;-28
2022/10/20 02:17:39;;;;;;;28.15;14.32;;;;;;;7.48;70.60;100319.75;5090272;28;20066;-27
2022/10/20 02:20:07;;;;;;;24.38;12.90;;;;;;;7.44;69.84;100300.75;5090693;28;20125;-28
2022/10/20 02:22:33;;;;;;;31.30;14.32;;;;;;;7.84;68.54;100317.75;5090347;28;20020;-28
2022/10/20 02:24:59;;;;;;;29.23;14.07;;;;;;;7.59;69.18;100295.34;5090233;28;20040;-27
2022/10/20 02:27:31;;;;;;;24.20;12.57;;;;;;;7.70;69.49;100316.03;5090474;28;20035;-26
2022/10/20 02:30:10;;;;;;;18.80;11.27;;;;;;;7.79;69.61;100314.88;5090398;28;20495;-27
2022/10/20 02:32:38;;;;;;;34.95;15.57;;;;;;;7.61;69.93;100295.97;5090339;28;20032;-30
2022/10/20 02:35:09;;;;;;;36.00;17.73;;;;;;;7.65;69.79;100287.41;5089985;28;20032;-27
2022/10/20 02:37:34;;;;;;;30.27;14.93;;;;;;;7.44;71.02;100293.59;5071746;28;20035;-28
2022/10/20 02:40:00;;;;;;;24.73;12.52;;;;;;;7.79;70.05;100314.88;5071407;28;20044;-27
2022/10/20 02:42:25;;;;;;;15.98;10.48;;;;;;;7.87;70.32;100327.19;5089853;28;20443;-26
2022/10/20 02:44:50;;;;;;;17.65;10.13;;;;;;;7.92;70.52;100337.22;5089250;28;20043;-27
2022/10/20 02:47:16;;;;;;;15.10;10.10;;;;;;;7.68;71.49;100343.78;5088324;28;20545;-26
2022/10/20 02:49:42;;;;;;;15.93;9.95;;;;;;;7.36;73.03;100333.56;5090014;28;20040;-26
2022/10/20 02:52:07;;;;;;;17.00;9.30;;;;;;;7.22;73.08;100318.53;5071253;28;20024;-27
2022/10/20 02:54:33;;;;;;;14.85;10.00;;;;;;;7.27;73.69;100345.28;5089406;28;20031;-32
2022/10/20 02:56:58;;;;;;;16.58;10.13;;;;;;;7.17;72.75;100319.09;5089873;28;20031;-27
2022/10/20 02:59:24;;;;;;;14.85;9.35;;;;;;;7.05;73.52;100323.28;5089587;28;20039;-28
2022/10/20 03:01:51;;;;;;;15.45;9.98;;;;;;;7.23;73.32;100352.84;5089081;28;20537;-26
2022/10/20 03:04:17;;;;;;;16.63;11.15;;;;;;;7.30;73.04;100368.00;5089715;28;20032;-26
2022/10/20 03:06:42;;;;;;;23.55;15.38;;;;;;;7.13;74.17;100372.69;5089237;28;20043;-27
2022/10/20 03:09:07;;;;;;;30.73;23.38;;;;;;;6.77;75.05;100347.84;5089480;28;20028;-30
2022/10/20 03:11:33;;;;;;;23.90;15.80;;;;;;;6.96;74.50;100378.25;5089711;28;20032;-27
2022/10/20 03:13:58;;;;;;;21.40;14.77;;;;;;;7.02;75.07;100387.28;5089028;28;20468;-27
2022/10/20 03:16:24;;;;;;;21.15;14.68;;;;;;;7.30;74.75;100391.88;5089575;28;20032;-27
2022/10/20 03:18:50;;;;;;;18.48;13.23;;;;;;;7.43;74.63;100399.94;5089092;28;20036;-28
2022/10/20 03:21:15;;;;;;;20.88;13.52;;;;;;;7.41;74.33;100375.41;5089533;28;20173;-29
2022/10/20 03:23:41;;;;;;;19.50;12.50;;;;;;;7.75;73.95;100387.16;5089408;28;20059;-26
2022/10/20 03:26:09;;;;;;;20.52;12.10;;;;;;;7.87;72.45;100368.84;5089149;28;20027;-28
2022/10/20 03:28:34;;;;;;;;;;;;;;;7.91;72.22;100394.03;5070462;28;20184;-29
2022/10/20 03:31:00;;;;;;;18.63;12.85;;;;;;;7.30;74.62;100368.00;5088530;28;20400;-29
2022/10/20 03:33:26;;;;;;;21.83;11.75;;;;;;;7.82;73.70;100398.63;5089058;28;20028;-28
2022/10/20 03:35:51;;;;;;;20.83;13.15;;;;;;;8.21;72.38;100397.25;5070470;28;20044;-26
2022/10/20 03:38:17;;;;;;;18.67;12.57;;;;;;;8.27;72.09;100398.31;5088749;28;20056;-27
2022/10/20 03:40:42;;;;;;;19.38;13.35;;;;;;;7.95;73.02;100377.50;5070190;28;20023;-26
2022/10/20 03:43:07;;;;;;;28.23;13.90;;;;;;;7.88;72.49;100392.53;5087285;28;20047;-31
2022/10/20 03:45:33;;;;;;;20.10;12.35;;;;;;;7.99;71.64;100405.31;5088708;28;20031;-28
2022/10/20 03:47:58;;;;;;;18.50;12.43;;;;;;;7.95;72.05;100413.88;5087422;28;20073;-29
2022/10/20 03:50:24;;;;;;;22.27;13.98;;;;;;;7.95;72.23;100404.06;5088726;28;20535;-26
2022/10/20 03:52:50;;;;;;;30.90;12.70;;;;;;;7.52;72.33;100406.78;5086838;28;20031;-28
2022/10/20 03:55:17;;;;;;;23.15;12.07;;;;;;;7.64;72.29;100412.38;5088855;28;20024;-27
2022/10/20 03:57:42;;;;;;;30.83;13.98;;;;;;;7.67;71.33;100397.91;5088132;28;20032;-27
2022/10/20 04:00:09;;;;;;;27.25;14.15;;;;;;;7.68;71.06;100375.66;5070325;28;20513;-27
2022/10/20 04:02:43;;;;;;;24.92;13.20;;;;;;;7.48;72.85;100416.13;5069675;28;20039;-27
2022/10/20 04:05:15;;;;;;;28.33;14.68;;;;;;;7.45;72.47;100403.22;5070164;28;20055;-29
2022/10/20 04:07:41;;;;;;;35.17;14.55;;;;;;;7.56;71.97;100405.38;5088237;28;20576;-28
2022/10/20 04:10:07;;;;;;;25.65;13.73;;;;;;;7.81;71.72;100415.59;5088291;28;20051;-27
2022/10/20 04:12:33;;;;;;;24.73;13.27;;;;;;;7.99;71.36;100415.94;5087622;28;20188;-28
2022/10/20 04:14:58;;;;;;;21.05;11.55;;;;;;;7.84;72.05;100417.84;5087646;28;20027;-26
2022/10/20 04:17:23;;;;;;;25.17;13.02;;;;;;;7.80;72.51;100411.28;5088281;28;20051;-29
2022/10/20 04:19:49;;;;;;;22.02;13.25;;;;;;;7.83;72.79;100416.22;5088020;28;20024;-27
2022/10/20 04:22:14;;;;;;;22.42;12.68;;;;;;;8.03;71.31;100422.50;5069831;28;20036;-29
2022/10/20 04:24:40;;;;;;;23.50;13.10;;;;;;;7.91;71.33;100408.09;5087513;28;20070;-27
2022/10/20 04:27:05;;;;;;;24.23;13.50;;;;;;;7.97;71.51;100396.72;5087912;28;20492;-28
2022/10/20 04:29:31;;;;;;;24.13;14.38;;;;;;;7.92;70.88;100390.34;5087896;28;20035;-26
2022/10/20 04:31:56;;;;;;;22.95;13.48;;;;;;;7.93;71.12;100416.72;5087883;28;20059;-29
2022/10/20 04:34:22;;;;;;;26.48;14.63;;;;;;;7.92;71.29;100422.19;5087855;28;20028;-27
2022/10/20 04:36:47;;;;;;;25.33;14.20;;;;;;;7.99;71.02;100393.88;5087611;28;20465;-30
2022/10/20 04:39:13;;;;;;;20.58;12.77;;;;;;;8.11;70.81;100424.19;5087727;28;20051;-27
2022/10/20 04:41:38;;;;;;;20.80;12.18;;;;;;;8.08;70.93;100415.78;5087414;28;20028;-27
2022/10/20 04:44:03;;;;;;;22.02;12.23;;;;;;;8.01;71.30;100391.84;5087742;28;20032;-27
2022/10/20 04:46:29;;;;;;;20.35;13.85;;;;;;;8.03;71.89;100406.56;5087624;28;20808;-27
2022/10/20 04:48:54;;;;;;;19.92;12.73;;;;;;;8.13;71.76;100410.69;5086071;28;20078;-27
2022/10/20 04:51:20;;;;;;;38.20;13.57;;;;;;;8.34;71.45;100434.56;5087615;28;20081;-27
2022/10/20 04:53:46;;;;;;;19.95;12.93;;;;;;;8.29;72.18;100421.03;5068700;28;20158;-27
2022/10/20 04:56:17;;;;;;;21.58;12.05;;;;;;;8.31;72.77;100424.31;5069273;28;20642;-27
2022/10/20 04:58:48;;;;;;;28.52;13.65;;;;;;;8.48;73.41;100439.97;5087524;28;20085;-27
2022/10/20 05:01:14;;;;;;;27.77;16.15;;;;;;;8.46;75.03;100445.50;5085854;28;20529;-28
2022/10/20 05:03:39;;;;;;;26.85;16.80;;;;;;;8.91;74.28;100455.72;5087341;28;20125;-26
2022/10/20 05:06:15;;;;;;;36.30;18.08;;;;;;;8.81;75.35;100454.25;5087219;28;20024;-29
2022/10/20 05:08:42;;;;;;;26.70;15.43;;;;;;;8.88;73.68;100445.50;5086982;28;20077;-29
2022/10/20 05:11:09;;;;;;;27.90;15.10;;;;;;;8.91;73.81;100437.94;5087247;28;20024;-27
2022/10/20 05:13:35;;;;;;;22.90;14.55;;;;;;;9.20;73.32;100450.13;5068711;28;20031;-30
2022/10/20 05:16:00;;;;;;;23.10;15.07;;;;;;;9.40;72.75;100444.03;5087276;28;20036;-26
2022/10/20 05:18:27;;;;;;;26.10;16.90;;;;;;;9.55;73.60;100473.94;5087026;28;20039;-29
2022/10/20 05:20:52;;;;;;;24.20;16.83;;;;;;;9.70;73.93;100480.94;5086813;28;20143;-31
2022/10/20 05:23:18;;;;;;;26.25;18.02;;;;;;;9.79;76.01;100479.72;5087052;28;20107;-27
2022/10/20 05:25:43;;;;;;;24.08;17.17;;;;;;;9.98;76.25;100465.59;5086981;28;20024;-27
2022/10/20 05:28:09;;;;;;;24.73;17.83;;;;;;;10.17;75.92;100474.59;5087161;28;20020;-27
2022/10/20 05:30:35;;;;;;;23.42;16.77;;;;;;;10.54;74.87;100498.16;5086952;28;20035;-26
2022/10/20 05:33:00;;;;;;;27.67;16.27;;;;;;;10.46;73.05;100480.53;5068631;28;20124;-29
2022/10/20 05:35:27;;;;;;;22.23;15.13;;;;;;;10.47;72.26;100487.53;5086717;28;20032;-27
2022/10/20 05:37:52;;;;;;;22.70;15.38;;;;;;;10.54;72.53;100507.00;5086692;28;20039;-27
2022/10/20 05:40:17;;;;;;;20.70;15.38;;;;;;;10.40;72.45;100492.03;5086755;28;20016;-31
2022/10/20 05:42:43;;;;;;;21.30;15.15;;;;;;;10.55;72.79;100521.16;5086669;28;20032;-27
2022/10/20 05:45:08;;;;;;;23.92;15.38;;;;;;;10.45;73.80;100533.06;5086630;28;20031;-30
2022/10/20 05:47:34;;;;;;;21.23;15.43;;;;;;;10.63;72.90;100518.28;5087081;28;20534;-28
2022/10/20 05:49:59;;;;;;;22.75;15.68;;;;;;;10.76;72.52;100507.56;5086669;28;20035;-28
2022/10/20 05:52:25;;;;;;;22.42;15.07;;;;;;;10.98;73.09;100542.00;5086452;28;20086;-29
2022/10/20 05:54:50;;;;;;;20.42;16.38;;;;;;;11.19;72.93;100527.53;5068056;28;20438;-29
2022/10/20 05:57:16;;;;;;;26.70;16.48;;;;;;;11.35;72.38;100536.94;5068357;28;20028;-29
2022/10/20 05:59:41;;;;;;;37.67;22.65;;;;;;;11.46;72.92;100538.94;5086845;28;20028;-28
2022/10/20 06:02:11;;;;;;;40.20;23.65;;;;;;;11.53;72.68;100529.03;5086625;28;20089;-27
2022/10/20 06:04:37;;;;;;;38.25;21.20;;;;;;;11.73;72.93;100549.47;5086446;28;20068;-30
2022/10/20 06:07:08;;;;;;;36.28;21.25;;;;;;;11.80;72.22;100534.22;5086372;28;20444;-30
2022/10/20 06:09:34;;;;;;;86.45;50.67;;;;;;;12.31;72.89;100560.00;5086694;28;20043;-28
2022/10/20 06:12:00;;;;;;;45.70;28.33;;;;;;;12.66;72.39;100556.81;5086795;28;20024;-27
2022/10/20 06:14:26;;;;;;;35.33;25.38;;;;;;;12.99;71.65;100563.69;5086492;28;20032;-30
2022/10/20 06:16:52;;;;;;;42.22;25.05;;;;;;;13.49;70.54;100552.03;5086105;28;20036;-27
2022/10/20 06:19:18;;;;;;;59.58;37.08;;;;;;;13.92;68.89;100562.56;5086379;28;20032;-31
2022/10/20 06:21:44;;;;;;;115.55;64.53;;;;;;;14.20;68.37;100555.72;5087060;28;20547;-31
2022/10/20 06:24:10;;;;;;;24.73;15.82;;;;;;;14.64;66.24;100561.66;5086472;28;20025;-28
2022/10/20 06:26:37;;;;;;;38.70;22.60;;;;;;;14.74;65.41;100558.38;5067898;28;20032;-28
2022/10/20 06:29:04;;;;;;;33.10;20.25;;;;;;;14.91;64.99;100574.59;5086294;28;20024;-28
2022/10/20 06:31:32;;;;;;;43.90;23.85;;;;;;;15.09;64.68;100571.75;5086372;28;20035;-27
2022/10/20 06:33:58;;;;;;;39.45;20.95;;;;;;;15.25;63.77;100576.41;5086194;28;20064;-26
2022/10/20 06:36:25;;;;;;;34.00;19.80;;;;;;;15.28;63.04;100556.28;5086839;28;20113;-27
2022/10/20 06:38:55;;;;;;;87.25;46.47;;;;;;;15.44;63.52;100592.34;5067753;28;20059;-27
2022/10/20 06:41:21;;;;;;;35.92;23.88;;;;;;;15.59;62.32;100565.78;5069996;28;20408;-29
2022/10/20 06:43:47;;;;;;;29.73;19.30;;;;;;;15.85;61.85;100595.88;5069682;28;20481;-31
2022/10/20 06:46:15;;;;;;;29.75;16.05;;;;;;;15.91;60.96;100583.34;5069805;28;20038;-29
2022/10/20 06:48:41;;;;;;;21.75;15.05;;;;;;;15.92;60.61;100580.41;5069649;28;20153;-28
2022/10/20 06:51:10;;;;;;;24.30;14.85;;;;;;;16.18;60.06;100596.97;5069724;28;20131;-29
2022/10/20 06:53:37;;;;;;;28.42;15.38;;;;;;;16.03;59.68;100584.09;5069944;28;20054;-27
2022/10/20 06:56:14;;;;;;;23.90;14.88;;;;;;;16.25;59.65;100594.97;5068125;28;20265;-30
2022/10/20 06:58:41;;;;;;;23.52;13.68;;;;;;;16.40;59.29;100597.09;5069437;28;20065;-28
2022/10/20 07:01:18;;;;;;;18.25;13.05;;;;;;;16.46;58.13;100586.16;5069090;28;20033;-28
2022/10/20 07:03:46;;;;;;;22.00;12.63;;;;;;;16.52;58.11;100583.56;5069502;28;20111;-28
2022/10/20 07:06:14;;;;;;;29.48;15.13;;;;;;;16.64;58.33;100598.56;5069429;28;20036;-29
2022/10/20 07:08:39;;;;;;;16.35;11.52;;;;;;;16.82;57.19;100600.19;5067555;28;20063;-30
2022/10/20 07:11:26;;;;;;;22.02;13.55;;;;;;;16.64;57.85;100603.13;5051230;28;20123;-28
2022/10/20 07:13:52;;;;;;;17.10;12.60;;;;;;;17.07;56.26;100601.63;5068062;28;20020;-29
2022/10/20 07:16:20;;;;;;;19.65;13.20;;;;;;;16.98;56.16;100586.94;5069082;28;20496;-27
2022/10/20 07:18:46;;;;;;;15.95;11.55;;;;;;;17.18;55.45;100613.34;5069007;28;20020;-29
2022/10/20 07:21:18;;;;;;;16.80;11.45;;;;;;;17.27;54.85;100607.28;5068900;28;20036;-27
2022/10/20 07:23:44;;;;;;;16.70;11.27;;;;;;;17.19;54.39;100599.63;5069217;28;20106;-28
2022/10/20 07:26:15;;;;;;;15.32;11.35;;;;;;;17.39;54.03;100593.69;5067231;28;20028;-28
2022/10/20 07:28:42;;;;;;;15.02;10.57;;;;;;;17.57;53.15;100578.22;5067436;28;20163;-29
2022/10/20 07:31:13;;;;;;;13.25;10.95;;;;;;;17.54;53.30;100586.84;5067401;28;20033;-27
2022/10/20 07:33:39;;;;;;;17.15;11.75;;;;;;;17.53;52.72;100583.34;5068923;28;20031;-32
2022/10/20 07:36:24;;;;;;;12.63;9.73;;;;;;;17.48;53.10;100599.44;5068601;28;20048;-28
2022/10/20 07:38:55;;;;;;;15.52;10.65;;;;;;;17.72;52.38;100600.00;5077892;28;20061;-31
2022/10/20 07:41:20;;;;;;;13.63;10.60;;;;;;;17.82;52.11;100610.09;5087251;28;20501;-27
2022/10/20 07:43:46;;;;;;;17.95;9.65;;;;;;;17.87;51.97;100610.16;5088858;28;20035;-30
2022/10/20 07:46:12;;;;;;;14.20;10.30;;;;;;;17.92;52.08;100612.91;5088707;28;20034;-28
2022/10/20 07:48:38;;;;;;;15.73;10.00;;;;;;;17.99;50.89;100615.41;5086943;28;20032;-29
2022/10/20 07:51:24;;;;;;;16.60;11.10;;;;;;;18.21;50.25;100615.34;5088577;28;20776;-30
2022/10/20 07:54:10;;;;;;;16.95;10.20;;;;;;;18.42;49.00;100622.53;5088633;28;20028;-29
2022/10/20 07:56:41;;;;;;;14.68;9.82;;;;;;;18.48;48.48;100604.50;5086463;28;20043;-29
2022/10/20 07:59:08;;;;;;;13.23;9.30;;;;;;;18.66;48.32;100616.78;5088424;28;20047;-27
2022/10/20 08:01:34;;;;;;;15.70;8.93;;;;;;;18.56;48.50;100622.13;5088796;28;20134;-27
2022/10/20 08:03:59;;;;;;;14.55;8.00;;;;;;;18.58;48.16;100620.78;5088616;28;20119;-28
2022/10/20 08:06:25;;;;;;;14.30;9.85;;;;;;;19.01;48.15;100634.34;5088252;28;20554;-27
2022/10/20 08:08:50;;;;;;;12.75;9.73;;;;;;;19.17;46.74;100627.16;5088081;28;20032;-30
2022/10/20 08:11:16;;;;;;;12.52;9.20;;;;;;;19.02;46.47;100598.13;5087199;28;20020;-27
2022/10/20 08:13:42;;;;;;;17.98;10.55;;;;;;;19.25;45.35;100632.88;5088214;28;20252;-28
2022/10/20 08:16:09;;;;;;;10.52;8.43;;;;;;;19.23;45.16;100637.72;5088077;28;20063;-30
2022/10/20 08:18:35;;;;;;;10.97;7.57;;;;;;;19.27;44.96;100608.28;5103511;28;20507;-30
2022/10/20 08:21:15;;;;;;;12.40;8.70;;;;;;;19.46;45.40;100630.25;5088259;28;20258;-26
2022/10/20 08:23:43;;;;;;;12.25;9.20;;;;;;;19.83;44.98;100630.13;5087989;28;20060;-27
2022/10/20 08:26:10;;;;;;;12.32;8.85;;;;;;;19.84;44.18;100609.31;5087947;28;20451;-28
2022/10/20 08:28:36;;;;;;;11.82;7.50;;;;;;;19.65;43.82;100601.63;5087450;28;20040;-31
2022/10/20 08:31:04;;;;;;;13.23;8.40;;;;;;;19.63;43.08;100624.63;5088038;28;20032;-31
2022/10/20 08:33:29;;;;;;;13.35;7.28;;;;;;;19.83;42.91;100626.63;5103238;28;20024;-31
2022/10/20 08:35:55;;;;;;;12.18;8.75;;;;;;;19.83;43.09;100623.91;5087796;28;20063;-29
2022/10/20 08:38:20;;;;;;;13.02;8.13;;;;;;;19.85;44.39;100627.16;5087484;28;20048;-29
2022/10/20 08:40:46;;;;;;;14.30;8.25;;;;;;;19.95;43.85;100632.59;5086077;28;20024;-27
2022/10/20 08:43:17;;;;;;;11.15;7.88;;;;;;;19.95;42.62;100624.47;5087526;28;20028;-28
2022/10/20 08:45:43;;;;;;;9.75;7.80;;;;;;;20.13;42.04;100633.19;5088165;28;20084;-28
2022/10/20 08:48:17;;;;;;;11.07;8.02;;;;;;;20.24;41.26;100626.69;5087330;28;20411;-27
2022/10/20 08:50:45;;;;;;;10.73;8.32;;;;;;;20.43;41.95;100611.53;5087003;28;20411;-29
2022/10/20 08:53:11;;;;;;;;;;;;;;;20.76;41.62;100636.47;5087969;28;20028;-31
2022/10/20 08:55:36;;;;;;;14.07;8.27;;;;;;;20.75;39.78;100617.78;5087055;28;19956;-28
2022/10/20 08:58:14;;;;;;;15.77;8.70;;;;;;;20.78;39.81;100634.31;5087755;28;20096;-27
2022/10/20 09:00:40;;;;;;;16.23;9.18;;;;;;;20.76;40.38;100630.22;5086490;28;20067;-28
2022/10/20 09:03:23;;;;;;;11.48;8.38;;;;;;;20.89;39.30;100624.25;5087340;28;20040;-31
2022/10/20 09:05:55;;;;;;;11.00;7.53;;;;;;;20.80;38.87;100625.88;5087027;28;20028;-27
2022/10/20 09:08:24;;;;;;;10.57;7.65;;;;;;;21.14;38.97;100636.13;5085842;28;20036;-32
2022/10/20 09:10:53;;;;;;;13.50;7.40;;;;;;;21.19;39.26;100623.38;5086785;28;20024;-33
2022/10/20 09:13:23;;;;;;;9.68;6.75;;;;;;;21.26;37.96;100634.72;5102464;28;20035;-29
2022/10/20 09:15:51;;;;;;;9.68;6.43;;;;;;;21.18;37.45;100637.19;5087027;28;20048;-27
2022/10/20 09:18:18;;;;;;;13.70;9.32;;;;;;;21.00;37.88;100625.88;5086954;28;20500;-28
2022/10/20 09:20:52;;;;;;;11.95;7.15;;;;;;;21.40;37.97;100636.84;5086285;28;20027;-28
2022/10/20 09:23:22;;;;;;;13.15;7.32;;;;;;;21.79;37.70;100636.16;5086985;28;20131;-31
2022/10/20 09:25:50;;;;;;;8.35;6.25;;;;;;;22.07;37.25;100632.72;5086591;28;20089;-28
2022/10/20 09:28:25;;;;;;;11.75;6.88;;;;;;;21.90;36.61;100618.72;5085520;28;20038;-28
2022/10/20 09:30:52;;;;;;;9.15;6.40;;;;;;;21.69;37.41;100638.94;5086242;28;20420;-29
2022/10/20 09:33:33;;;;;;;11.02;6.50;;;;;;;21.51;36.51;100643.06;5086697;28;20064;-28
2022/10/20 09:36:19;;;;;;;9.80;6.15;;;;;;;21.71;36.94;100645.69;5086604;28;20067;-29
2022/10/20 09:38:50;;;;;;;10.38;6.38;;;;;;;21.87;36.27;100644.53;5086356;28;20052;-29
2022/10/20 09:41:17;;;;;;;11.20;5.57;;;;;;;21.80;36.12;100635.06;5085124;28;20020;-27
2022/10/20 09:44:14;;;;;;;8.95;5.47;;;;;;;22.03;36.00;100647.97;5102100;28;20063;-28
2022/10/20 09:46:49;;;;;;;9.90;6.15;;;;;;;22.08;35.46;100637.06;5085957;28;20046;-28
2022/10/20 09:49:33;;;;;;;10.60;6.35;;;;;;;22.37;34.12;100635.53;5086477;28;20480;-32
2022/10/20 09:52:00;;;;;;;11.07;5.90;;;;;;;22.40;34.47;100632.25;5086341;28;20078;-31
2022/10/20 09:54:26;;;;;;;9.40;6.07;;;;;;;22.40;34.31;100629.53;5102012;28;20097;-29
2022/10/20 09:56:53;;;;;;;11.50;6.22;;;;;;;22.61;33.36;100619.28;5086462;28;20024;-28
2022/10/20 09:59:20;;;;;;;9.23;6.50;;;;;;;22.89;33.70;100635.91;5086210;28;20443;-28
2022/10/20 10:01:53;;;;;;;12.48;6.20;;;;;;;22.80;33.38;100625.66;5086790;28;20056;-28
2022/10/20 10:04:38;;;;;;;11.75;5.75;;;;;;;23.08;34.31;100630.56;5086232;28;20020;-27
2022/10/20 10:07:24;;;;;;;11.98;5.97;;;;;;;23.13;32.50;100636.75;5086540;28;20035;-28
2022/10/20 10:10:22;;;;;;;8.73;5.70;;;;;;;23.16;33.23;100632.66;5086154;28;20032;-27
2022/10/20 10:12:52;;;;;;;11.35;6.40;;;;;;;23.06;33.61;100639.00;5088591;28;20471;-31
2022/10/20 10:15:26;;;;;;;8.85;6.00;;;;;;;22.80;33.50;100639.25;5090462;28;20028;-29
2022/10/20 10:17:52;;;;;;;8.13;5.78;;;;;;;23.10;33.02;100633.81;5090189;28;20036;-32
2022/10/20 10:20:26;;;;;;;8.60;5.97;;;;;;;23.16;33.10;100600.81;5090500;28;20115;-31
2022/10/20 10:22:52;;;;;;;12.20;6.97;;;;;;;23.75;32.58;100631.38;5088451;28;20047;-30
2022/10/20 10:25:28;;;;;;;10.45;6.95;;;;;;;23.98;31.02;100628.91;5089981;28;20020;-28
2022/10/20 10:28:02;;;;;;;11.40;6.35;;;;;;;23.42;31.55;100635.88;5090706;28;20036;-29
2022/10/20 10:30:31;;;;;;;13.32;7.78;;;;;;;23.57;31.26;100632.16;5090166;28;20073;-30
2022/10/20 10:32:57;;;;;;;9.13;6.45;;;;;;;23.95;31.75;100624.06;5105356;28;20423;-28
2022/10/20 10:35:36;;;;;;;12.13;6.18;;;;;;;24.39;31.46;100629.06;5089989;28;20038;-33
2022/10/20 10:38:02;;;;;;;10.40;6.13;;;;;;;24.24;29.84;100632.03;5090142;28;20064;-34
2022/10/20 10:40:58;;;;;;;9.27;6.18;;;;;;;24.59;30.13;100617.03;5096433;28;20036;-30
2022/10/20 10:43:29;;;;;;;13.75;8.57;;;;;;;25.04;29.80;100616.50;5090072;28;20028;-30
2022/10/20 10:46:15;;;;;;;8.32;5.60;;;;;;;24.82;28.71;100598.88;5089856;28;20032;-31
2022/10/20 10:48:52;;;;;;;10.63;6.32;;;;;;;25.11;28.69;100597.81;5089626;28;20495;-28
2022/10/20 10:51:23;;;;;;;;;;;;;;;24.74;31.14;100602.31;5090022;28;20024;-31
2022/10/20 10:54:22;;;;;;;8.43;5.93;;;;;;;24.69;28.69;100610.59;5089483;28;19941;-29
2022/10/20 10:56:52;;;;;;;10.52;6.43;;;;;;;25.10;29.04;100604.38;5089298;28;20035;-29
2022/10/20 10:59:26;;;;;;;9.43;5.60;;;;;;;24.35;29.34;100600.78;5089544;28;20031;-33
2022/10/20 11:02:22;;;;;;;8.52;6.22;;;;;;;24.43;28.82;100591.91;5089193;28;20757;-28
2022/10/20 11:05:14;;;;;;;9.95;6.63;;;;;;;25.18;29.12;100590.00;5073285;28;20080;-28
2022/10/20 11:07:52;;;;;;;10.68;6.95;;;;;;;25.48;28.52;100587.78;5098146;28;20066;-28
2022/10/20 11:10:39;;;;;;;9.15;6.20;;;;;;;25.11;28.15;100595.09;5108880;28;20019;-34
2022/10/20 11:13:29;;;;;;;13.23;7.97;;;;;;;24.19;30.02;100580.34;5090959;28;20038;-30
2022/10/20 11:16:29;;;;;;;24.00;7.63;;;;;;;23.85;30.76;100581.44;5091159;28;20460;-29
2022/10/20 11:19:19;;;;;;;10.70;6.03;;;;;;;23.79;30.76;100579.88;5100272;28;20036;-29
2022/10/20 11:21:45;;;;;;;8.88;6.30;;;;;;;24.35;30.98;100584.44;5109415;28;20038;-28
2022/10/20 11:24:22;;;;;;;10.73;6.00;;;;;;;24.90;29.62;100578.28;5109057;28;20032;-27
2022/10/20 11:26:53;;;;;;;7.80;5.40;;;;;;;25.26;29.34;100559.31;5109061;28;20537;-30
2022/10/20 11:29:36;;;;;;;9.43;6.32;;;;;;;25.80;27.71;100558.66;5109141;28;20107;-29
2022/10/20 11:32:28;;;;;;;55.28;33.88;;;;;;;25.46;28.23;100563.53;5108917;28;20126;-28
2022/10/20 11:35:14;;;;;;;16.55;11.00;;;;;;;25.11;29.87;100570.53;5108863;28;20479;-29